sensor_id;sensor_type;location;lat;lon;timestamp;temperature;humidity
23114;DHT22;11726;50.122;8.832;2022-08-19T00:01:59;21.60;99.90
23114;DHT22;11726;50.122;8.832;2022-08-19T00:04:31;21.60;99.90
23114;DHT22;11726;50.122;8.832;2022-08-19T00:07:00;21.60;99.90
23114;DHT22;11726;50.122;8.832;2022-08-19T00:09:28;21.80;99.90
23114;DHT22;11726;50.122;8.832;2022-08-19T00:11:56;21.80;99.90
23114;DHT22;11726;50.122;8.832;2022-08-19T00:14:25;21.90;99.90
23114;DHT22;11726;50.122;8.832;2022-08-19T00:16:53;21.80;99.90
23114;DHT22;11726;50.122;8.832;2022-08-19T00:19:21;21.70;99.90
23114;DHT22;11726;50.122;8.832;2022-08-19T00:21:48;21.60;99.90
23114;DHT22;11726;50.122;8.832;2022-08-19T00:24:16;21.60;99.90
23114;DHT22;11726;50.122;8.832;2022-08-19T00:26:43;21.60;99.90
23114;DHT22;11726;50.122;8.832;2022-08-19T00:29:14;21.60;99.90
23114;DHT22;11726;50.122;8.832;2022-08-19T00:31:42;21.60;99.90
23114;DHT22;11726;50.122;8.832;2022-08-19T00:34:12;21.60;99.90
23114;DHT22;11726;50.122;8.832;2022-08-19T00:36:40;21.60;99.90
23114;DHT22;11726;50.122;8.832;2022-08-19T00:39:07;21.50;99.90
23114;DHT22;11726;50.122;8.832;2022-08-19T00:41:34;21.50;99.90
23114;DHT22;11726;50.122;8.832;2022-08-19T00:44:06;21.50;99.90
23114;DHT22;11726;50.122;8.832;2022-08-19T00:46:36;21.50;99.90
23114;DHT22;11726;50.122;8.832;2022-08-19T00:49:34;21.50;99.90
23114;DHT22;11726;50.122;8.832;2022-08-19T00:52:12;21.60;99.90
23114;DHT22;11726;50.122;8.832;2022-08-19T00:54:43;21.50;99.90
23114;DHT22;11726;50.122;8.832;2022-08-19T00:57:17;21.50;99.90
23114;DHT22;11726;50.122;8.832;2022-08-19T00:59:46;21.50;99.90
23114;DHT22;11726;50.122;8.832;2022-08-19T01:02:28;21.50;99.90
23114;DHT22;11726;50.122;8.832;2022-08-19T01:04:55;21.50;99.90
23114;DHT22;11726;50.122;8.832;2022-08-19T01:07:22;21.50;99.90
23114;DHT22;11726;50.122;8.832;2022-08-19T01:09:49;21.50;99.90
23114;DHT22;11726;50.122;8.832;2022-08-19T01:12:17;21.40;99.90
23114;DHT22;11726;50.122;8.832;2022-08-19T01:14:45;21.40;99.90
23114;DHT22;11726;50.122;8.832;2022-08-19T01:17:12;21.30;99.90
23114;DHT22;11726;50.122;8.832;2022-08-19T01:19:41;21.40;99.90
23114;DHT22;11726;50.122;8.832;2022-08-19T01:22:33;21.40;99.90
23114;DHT22;11726;50.122;8.832;2022-08-19T01:25:03;21.40;99.90
23114;DHT22;11726;50.122;8.832;2022-08-19T01:27:43;21.40;99.90
23114;DHT22;11726;50.122;8.832;2022-08-19T01:30:23;21.50;99.90
23114;DHT22;11726;50.122;8.832;2022-08-19T01:32:51;21.50;99.90
23114;DHT22;11726;50.122;8.832;2022-08-19T01:35:20;21.40;99.90
23114;DHT22;11726;50.122;8.832;2022-08-19T01:37:52;21.40;99.90
23114;DHT22;11726;50.122;8.832;2022-08-19T01:40:22;21.40;99.90
23114;DHT22;11726;50.122;8.832;2022-08-19T01:42:50;21.40;99.90
23114;DHT22;11726;50.122;8.832;2022-08-19T01:45:19;21.50;99.90
23114;DHT22;11726;50.122;8.832;2022-08-19T01:47:46;21.50;99.90
23114;DHT22;11726;50.122;8.832;2022-08-19T01:50:26;21.50;99.90
23114;DHT22;11726;50.122;8.832;2022-08-19T01:52:54;21.50;99.90
23114;DHT22;11726;50.122;8.832;2022-08-19T01:55:32;21.50;99.90
23114;DHT22;11726;50.122;8.832;2022-08-19T01:58:02;21.40;99.90
23114;DHT22;11726;50.122;8.832;2022-08-19T02:00:31;21.40;99.90
23114;DHT22;11726;50.122;8.832;2022-08-19T02:02:58;21.40;99.90
23114;DHT22;11726;50.122;8.832;2022-08-19T02:05:25;21.40;99.90
23114;DHT22;11726;50.122;8.832;2022-08-19T02:07:52;21.40;99.90
23114;DHT22;11726;50.122;8.832;2022-08-19T02:10:21;21.50;99.90
23114;DHT22;11726;50.122;8.832;2022-08-19T02:12:49;21.50;99.90
23114;DHT22;11726;50.122;8.832;2022-08-19T02:15:18;21.40;99.90
23114;DHT22;11726;50.122;8.832;2022-08-19T02:17:48;21.40;99.90
23114;DHT22;11726;50.122;8.832;2022-08-19T02:20:16;21.40;99.90
23114;DHT22;11726;50.122;8.832;2022-08-19T02:22:44;21.40;99.90
23114;DHT22;11726;50.122;8.832;2022-08-19T02:25:14;21.40;99.90
23114;DHT22;11726;50.122;8.832;2022-08-19T02:27:42;21.50;99.90
23114;DHT22;11726;50.122;8.832;2022-08-19T02:30:11;21.50;99.90
23114;DHT22;11726;50.122;8.832;2022-08-19T02:32:40;21.50;99.90
23114;DHT22;11726;50.122;8.832;2022-08-19T02:35:11;21.50;99.90
23114;DHT22;11726;50.122;8.832;2022-08-19T02:37:38;21.40;99.90
23114;DHT22;11726;50.122;8.832;2022-08-19T02:40:24;21.40;99.90
23114;DHT22;11726;50.122;8.832;2022-08-19T02:42:51;21.40;99.90
23114;DHT22;11726;50.122;8.832;2022-08-19T02:45:18;21.40;99.90
23114;DHT22;11726;50.122;8.832;2022-08-19T02:47:44;21.40;99.90
23114;DHT22;11726;50.122;8.832;2022-08-19T02:50:11;21.40;99.90
23114;DHT22;11726;50.122;8.832;2022-08-19T02:52:39;21.40;99.90
23114;DHT22;11726;50.122;8.832;2022-08-19T02:55:06;21.40;99.90
23114;DHT22;11726;50.122;8.832;2022-08-19T02:57:33;21.40;99.90
23114;DHT22;11726;50.122;8.832;2022-08-19T03:00:00;21.40;99.90
23114;DHT22;11726;50.122;8.832;2022-08-19T03:02:28;21.40;99.90
23114;DHT22;11726;50.122;8.832;2022-08-19T03:04:54;21.40;99.90
23114;DHT22;11726;50.122;8.832;2022-08-19T03:07:21;21.50;99.90
23114;DHT22;11726;50.122;8.832;2022-08-19T03:09:48;21.40;99.90
23114;DHT22;11726;50.122;8.832;2022-08-19T03:12:14;21.40;99.90
23114;DHT22;11726;50.122;8.832;2022-08-19T03:14:41;21.50;99.90
23114;DHT22;11726;50.122;8.832;2022-08-19T03:17:07;21.50;99.90
23114;DHT22;11726;50.122;8.832;2022-08-19T03:19:34;21.50;99.90
23114;DHT22;11726;50.122;8.832;2022-08-19T03:22:01;21.40;99.90
23114;DHT22;11726;50.122;8.832;2022-08-19T03:24:29;21.50;99.90
23114;DHT22;11726;50.122;8.832;2022-08-19T03:26:57;21.40;99.90
23114;DHT22;11726;50.122;8.832;2022-08-19T03:29:45;21.40;99.90
23114;DHT22;11726;50.122;8.832;2022-08-19T03:32:12;21.40;99.90
23114;DHT22;11726;50.122;8.832;2022-08-19T03:34:58;21.40;99.90
23114;DHT22;11726;50.122;8.832;2022-08-19T03:37:25;21.40;99.90
23114;DHT22;11726;50.122;8.832;2022-08-19T03:39:52;21.40;99.90
23114;DHT22;11726;50.122;8.832;2022-08-19T03:42:19;21.30;99.90
23114;DHT22;11726;50.122;8.832;2022-08-19T03:45:16;21.40;99.90
23114;DHT22;11726;50.122;8.832;2022-08-19T03:47:42;21.40;99.90
23114;DHT22;11726;50.122;8.832;2022-08-19T03:50:09;21.30;99.90
23114;DHT22;11726;50.122;8.832;2022-08-19T03:52:36;21.40;99.90
23114;DHT22;11726;50.122;8.832;2022-08-19T03:55:03;21.30;99.90
23114;DHT22;11726;50.122;8.832;2022-08-19T03:57:30;21.30;99.90
23114;DHT22;11726;50.122;8.832;2022-08-19T03:59:57;21.30;99.90
23114;DHT22;11726;50.122;8.832;2022-08-19T04:02:40;21.30;99.90
23114;DHT22;11726;50.122;8.832;2022-08-19T04:05:07;21.30;99.90
23114;DHT22;11726;50.122;8.832;2022-08-19T04:07:34;21.30;99.90
23114;DHT22;11726;50.122;8.832;2022-08-19T04:10:02;21.30;99.90
23114;DHT22;11726;50.122;8.832;2022-08-19T04:12:29;21.20;99.90
23114;DHT22;11726;50.122;8.832;2022-08-19T04:14:56;21.30;99.90
23114;DHT22;11726;50.122;8.832;2022-08-19T04:17:22;21.30;99.90
23114;DHT22;11726;50.122;8.832;2022-08-19T04:19:49;21.30;99.90
23114;DHT22;11726;50.122;8.832;2022-08-19T04:22:16;21.30;99.90
23114;DHT22;11726;50.122;8.832;2022-08-19T04:24:42;21.30;99.90
23114;DHT22;11726;50.122;8.832;2022-08-19T04:27:09;21.20;99.90
23114;DHT22;11726;50.122;8.832;2022-08-19T04:29:36;21.30;99.90
23114;DHT22;11726;50.122;8.832;2022-08-19T04:32:05;21.30;99.90
23114;DHT22;11726;50.122;8.832;2022-08-19T04:34:35;21.30;99.90
23114;DHT22;11726;50.122;8.832;2022-08-19T04:37:22;21.30;99.90
23114;DHT22;11726;50.122;8.832;2022-08-19T04:39:49;21.20;99.90
23114;DHT22;11726;50.122;8.832;2022-08-19T04:42:34;21.30;99.90
23114;DHT22;11726;50.122;8.832;2022-08-19T04:45:13;21.30;99.90
23114;DHT22;11726;50.122;8.832;2022-08-19T04:47:43;21.30;99.90
23114;DHT22;11726;50.122;8.832;2022-08-19T04:50:25;21.30;99.90
23114;DHT22;11726;50.122;8.832;2022-08-19T04:52:52;21.30;99.90
23114;DHT22;11726;50.122;8.832;2022-08-19T04:55:19;21.30;99.90
23114;DHT22;11726;50.122;8.832;2022-08-19T04:57:46;21.30;99.90
23114;DHT22;11726;50.122;8.832;2022-08-19T05:00:13;21.30;99.90
23114;DHT22;11726;50.122;8.832;2022-08-19T05:02:40;21.30;99.90
23114;DHT22;11726;50.122;8.832;2022-08-19T05:05:07;21.30;99.90
23114;DHT22;11726;50.122;8.832;2022-08-19T05:07:36;21.30;99.90
23114;DHT22;11726;50.122;8.832;2022-08-19T05:10:05;21.30;99.90
23114;DHT22;11726;50.122;8.832;2022-08-19T05:12:32;21.30;99.90
23114;DHT22;11726;50.122;8.832;2022-08-19T05:14:59;21.30;99.90
23114;DHT22;11726;50.122;8.832;2022-08-19T05:17:27;21.40;99.90
23114;DHT22;11726;50.122;8.832;2022-08-19T05:19:59;21.40;99.90
23114;DHT22;11726;50.122;8.832;2022-08-19T05:22:46;21.50;99.90
23114;DHT22;11726;50.122;8.832;2022-08-19T05:25:18;21.50;99.90
23114;DHT22;11726;50.122;8.832;2022-08-19T05:27:47;21.40;99.90
23114;DHT22;11726;50.122;8.832;2022-08-19T05:30:14;21.40;99.90
23114;DHT22;11726;50.122;8.832;2022-08-19T05:32:41;21.40;99.90
23114;DHT22;11726;50.122;8.832;2022-08-19T05:35:09;21.50;99.90
23114;DHT22;11726;50.122;8.832;2022-08-19T05:37:37;21.50;99.90
23114;DHT22;11726;50.122;8.832;2022-08-19T05:40:07;21.50;99.90
23114;DHT22;11726;50.122;8.832;2022-08-19T05:42:34;21.50;99.90
23114;DHT22;11726;50.122;8.832;2022-08-19T05:45:01;21.50;99.90
23114;DHT22;11726;50.122;8.832;2022-08-19T05:47:28;21.40;99.90
23114;DHT22;11726;50.122;8.832;2022-08-19T05:50:04;21.30;99.90
23114;DHT22;11726;50.122;8.832;2022-08-19T05:52:31;21.30;99.90
23114;DHT22;11726;50.122;8.832;2022-08-19T05:55:00;21.30;99.90
23114;DHT22;11726;50.122;8.832;2022-08-19T05:57:27;21.30;99.90
23114;DHT22;11726;50.122;8.832;2022-08-19T05:59:55;21.30;99.90
23114;DHT22;11726;50.122;8.832;2022-08-19T06:02:28;21.30;99.90
23114;DHT22;11726;50.122;8.832;2022-08-19T06:04:57;21.30;99.90
23114;DHT22;11726;50.122;8.832;2022-08-19T06:07:24;21.40;99.90
23114;DHT22;11726;50.122;8.832;2022-08-19T06:09:50;21.40;99.90
23114;DHT22;11726;50.122;8.832;2022-08-19T06:12:32;21.50;99.90
23114;DHT22;11726;50.122;8.832;2022-08-19T06:15:12;21.60;99.90
23114;DHT22;11726;50.122;8.832;2022-08-19T06:17:40;21.60;99.90
23114;DHT22;11726;50.122;8.832;2022-08-19T06:20:10;21.60;99.90
23114;DHT22;11726;50.122;8.832;2022-08-19T06:22:45;21.70;99.90
23114;DHT22;11726;50.122;8.832;2022-08-19T06:25:13;21.90;99.90
23114;DHT22;11726;50.122;8.832;2022-08-19T06:27:41;21.80;99.90
23114;DHT22;11726;50.122;8.832;2022-08-19T06:30:28;22.00;99.90
23114;DHT22;11726;50.122;8.832;2022-08-19T06:32:55;22.00;99.90
23114;DHT22;11726;50.122;8.832;2022-08-19T06:35:21;22.10;99.90
23114;DHT22;11726;50.122;8.832;2022-08-19T06:37:48;22.10;99.90
23114;DHT22;11726;50.122;8.832;2022-08-19T06:40:15;22.10;99.90
23114;DHT22;11726;50.122;8.832;2022-08-19T06:42:41;22.20;99.90
23114;DHT22;11726;50.122;8.832;2022-08-19T06:45:21;22.20;99.90
23114;DHT22;11726;50.122;8.832;2022-08-19T06:47:51;22.20;99.90
23114;DHT22;11726;50.122;8.832;2022-08-19T06:50:20;22.20;99.90
23114;DHT22;11726;50.122;8.832;2022-08-19T06:52:50;22.20;99.90
23114;DHT22;11726;50.122;8.832;2022-08-19T06:55:18;22.20;99.90
23114;DHT22;11726;50.122;8.832;2022-08-19T06:57:46;22.20;99.90
23114;DHT22;11726;50.122;8.832;2022-08-19T07:00:13;22.30;99.90
23114;DHT22;11726;50.122;8.832;2022-08-19T07:02:43;22.30;99.90
23114;DHT22;11726;50.122;8.832;2022-08-19T07:05:26;22.30;99.90
23114;DHT22;11726;50.122;8.832;2022-08-19T07:07:53;22.30;99.90
23114;DHT22;11726;50.122;8.832;2022-08-19T07:10:30;22.30;99.90
23114;DHT22;11726;50.122;8.832;2022-08-19T07:12:59;22.30;99.90
23114;DHT22;11726;50.122;8.832;2022-08-19T07:15:25;22.40;99.90
23114;DHT22;11726;50.122;8.832;2022-08-19T07:17:54;22.50;99.90
23114;DHT22;11726;50.122;8.832;2022-08-19T07:20:21;22.60;99.90
23114;DHT22;11726;50.122;8.832;2022-08-19T07:22:54;22.60;99.90
23114;DHT22;11726;50.122;8.832;2022-08-19T07:25:21;22.60;99.90
23114;DHT22;11726;50.122;8.832;2022-08-19T07:27:58;22.70;99.90
23114;DHT22;11726;50.122;8.832;2022-08-19T07:30:27;22.80;99.90
23114;DHT22;11726;50.122;8.832;2022-08-19T07:32:54;22.80;99.90
23114;DHT22;11726;50.122;8.832;2022-08-19T07:35:23;22.90;99.90
23114;DHT22;11726;50.122;8.832;2022-08-19T07:37:51;23.00;99.90
23114;DHT22;11726;50.122;8.832;2022-08-19T07:40:44;23.00;99.90
23114;DHT22;11726;50.122;8.832;2022-08-19T07:43:12;23.20;99.90
23114;DHT22;11726;50.122;8.832;2022-08-19T07:45:43;23.40;99.90
23114;DHT22;11726;50.122;8.832;2022-08-19T07:48:11;23.50;99.90
23114;DHT22;11726;50.122;8.832;2022-08-19T07:50:38;23.60;99.90
23114;DHT22;11726;50.122;8.832;2022-08-19T07:53:05;23.70;99.90
23114;DHT22;11726;50.122;8.832;2022-08-19T07:55:32;23.90;99.90
23114;DHT22;11726;50.122;8.832;2022-08-19T07:58:09;24.20;99.90
23114;DHT22;11726;50.122;8.832;2022-08-19T08:00:36;24.10;99.90
23114;DHT22;11726;50.122;8.832;2022-08-19T08:03:03;24.10;99.90
23114;DHT22;11726;50.122;8.832;2022-08-19T08:08:39;24.50;99.90
23114;DHT22;11726;50.122;8.832;2022-08-19T08:15:12;25.10;99.90
23114;DHT22;11726;50.122;8.832;2022-08-19T08:18:11;25.00;99.90
23114;DHT22;11726;50.122;8.832;2022-08-19T08:20:40;25.10;99.90
23114;DHT22;11726;50.122;8.832;2022-08-19T08:23:06;25.00;99.90
23114;DHT22;11726;50.122;8.832;2022-08-19T08:25:55;25.00;99.90
23114;DHT22;11726;50.122;8.832;2022-08-19T08:28:24;25.40;99.90
23114;DHT22;11726;50.122;8.832;2022-08-19T08:30:53;25.50;99.90
23114;DHT22;11726;50.122;8.832;2022-08-19T08:33:24;25.70;99.90
23114;DHT22;11726;50.122;8.832;2022-08-19T08:36:00;25.70;99.90
23114;DHT22;11726;50.122;8.832;2022-08-19T08:38:30;25.80;99.90
23114;DHT22;11726;50.122;8.832;2022-08-19T08:41:16;25.70;99.90
23114;DHT22;11726;50.122;8.832;2022-08-19T08:43:48;25.80;99.90
23114;DHT22;11726;50.122;8.832;2022-08-19T08:51:52;26.00;99.90
23114;DHT22;11726;50.122;8.832;2022-08-19T08:54:34;25.90;99.90
23114;DHT22;11726;50.122;8.832;2022-08-19T08:57:04;26.00;99.90
23114;DHT22;11726;50.122;8.832;2022-08-19T08:59:37;26.00;99.90
23114;DHT22;11726;50.122;8.832;2022-08-19T09:02:05;26.10;99.90
23114;DHT22;11726;50.122;8.832;2022-08-19T09:04:34;26.20;99.90
23114;DHT22;11726;50.122;8.832;2022-08-19T09:10:14;26.80;99.90
23114;DHT22;11726;50.122;8.832;2022-08-19T09:12:57;26.70;99.90
23114;DHT22;11726;50.122;8.832;2022-08-19T09:15:34;26.40;99.90
23114;DHT22;11726;50.122;8.832;2022-08-19T09:18:04;26.30;99.90
23114;DHT22;11726;50.122;8.832;2022-08-19T09:20:35;26.20;99.90
23114;DHT22;11726;50.122;8.832;2022-08-19T09:23:09;26.20;99.90
23114;DHT22;11726;50.122;8.832;2022-08-19T09:28:35;26.60;99.90
23114;DHT22;11726;50.122;8.832;2022-08-19T09:34:10;26.70;99.90
23114;DHT22;11726;50.122;8.832;2022-08-19T09:36:47;26.40;99.90
23114;DHT22;11726;50.122;8.832;2022-08-19T09:39:18;26.40;99.90
23114;DHT22;11726;50.122;8.832;2022-08-19T09:41:46;25.80;99.90
23114;DHT22;11726;50.122;8.832;2022-08-19T09:44:17;25.70;99.90
23114;DHT22;11726;50.122;8.832;2022-08-19T09:46:45;25.90;99.90
23114;DHT22;11726;50.122;8.832;2022-08-19T09:49:15;26.10;99.90
23114;DHT22;11726;50.122;8.832;2022-08-19T09:51:44;26.10;99.90
23114;DHT22;11726;50.122;8.832;2022-08-19T09:54:16;25.90;99.90
23114;DHT22;11726;50.122;8.832;2022-08-19T09:56:54;25.70;99.90
23114;DHT22;11726;50.122;8.832;2022-08-19T09:59:21;26.30;99.90
23114;DHT22;11726;50.122;8.832;2022-08-19T10:01:48;26.60;99.90
23114;DHT22;11726;50.122;8.832;2022-08-19T10:04:15;27.00;99.80
23114;DHT22;11726;50.122;8.832;2022-08-19T10:06:49;27.40;98.40
23114;DHT22;11726;50.122;8.832;2022-08-19T10:09:20;27.50;96.30
23114;DHT22;11726;50.122;8.832;2022-08-19T10:12:00;27.20;97.80
23114;DHT22;11726;50.122;8.832;2022-08-19T10:14:28;27.20;98.20
23114;DHT22;11726;50.122;8.832;2022-08-19T10:16:55;27.00;98.70
23114;DHT22;11726;50.122;8.832;2022-08-19T10:19:24;26.80;98.60
23114;DHT22;11726;50.122;8.832;2022-08-19T10:21:53;26.70;99.00
23114;DHT22;11726;50.122;8.832;2022-08-19T10:24:25;26.90;98.70
23114;DHT22;11726;50.122;8.832;2022-08-19T10:26:53;26.90;97.60
23114;DHT22;11726;50.122;8.832;2022-08-19T10:29:27;26.70;98.90
23114;DHT22;11726;50.122;8.832;2022-08-19T10:32:00;26.70;97.40
23114;DHT22;11726;50.122;8.832;2022-08-19T10:34:29;26.80;98.60
23114;DHT22;11726;50.122;8.832;2022-08-19T10:36:57;27.30;96.60
23114;DHT22;11726;50.122;8.832;2022-08-19T10:39:36;27.60;95.10
23114;DHT22;11726;50.122;8.832;2022-08-19T10:42:09;27.60;94.30
23114;DHT22;11726;50.122;8.832;2022-08-19T10:44:37;27.30;94.20
23114;DHT22;11726;50.122;8.832;2022-08-19T10:47:04;27.10;94.70
23114;DHT22;11726;50.122;8.832;2022-08-19T10:49:43;27.00;95.10
23114;DHT22;11726;50.122;8.832;2022-08-19T10:52:28;27.20;94.90
23114;DHT22;11726;50.122;8.832;2022-08-19T10:55:06;27.70;92.60
23114;DHT22;11726;50.122;8.832;2022-08-19T10:57:59;27.20;93.30
23114;DHT22;11726;50.122;8.832;2022-08-19T11:00:28;27.20;94.10
23114;DHT22;11726;50.122;8.832;2022-08-19T11:02:57;27.30;94.10
23114;DHT22;11726;50.122;8.832;2022-08-19T11:05:26;27.20;94.00
23114;DHT22;11726;50.122;8.832;2022-08-19T11:07:53;27.10;94.70
23114;DHT22;11726;50.122;8.832;2022-08-19T11:10:19;27.30;93.30
23114;DHT22;11726;50.122;8.832;2022-08-19T11:12:47;27.40;94.30
23114;DHT22;11726;50.122;8.832;2022-08-19T11:15:15;28.00;93.00
23114;DHT22;11726;50.122;8.832;2022-08-19T11:17:42;28.10;92.00
23114;DHT22;11726;50.122;8.832;2022-08-19T11:20:14;28.40;91.10
23114;DHT22;11726;50.122;8.832;2022-08-19T11:22:41;28.00;88.40
23114;DHT22;11726;50.122;8.832;2022-08-19T11:25:10;28.40;89.70
23114;DHT22;11726;50.122;8.832;2022-08-19T11:27:39;28.90;88.30
23114;DHT22;11726;50.122;8.832;2022-08-19T11:30:08;28.60;87.00
23114;DHT22;11726;50.122;8.832;2022-08-19T11:32:42;28.30;88.90
23114;DHT22;11726;50.122;8.832;2022-08-19T11:35:24;28.10;89.10
23114;DHT22;11726;50.122;8.832;2022-08-19T11:37:50;28.40;90.00
23114;DHT22;11726;50.122;8.832;2022-08-19T11:40:17;28.50;90.00
23114;DHT22;11726;50.122;8.832;2022-08-19T11:42:44;28.30;87.50
23114;DHT22;11726;50.122;8.832;2022-08-19T11:45:54;27.90;85.30
23114;DHT22;11726;50.122;8.832;2022-08-19T11:48:26;28.10;85.40
23114;DHT22;11726;50.122;8.832;2022-08-19T11:50:53;28.50;83.70
23114;DHT22;11726;50.122;8.832;2022-08-19T11:53:23;28.60;83.50
23114;DHT22;11726;50.122;8.832;2022-08-19T11:55:53;29.00;81.90
23114;DHT22;11726;50.122;8.832;2022-08-19T11:58:22;29.00;80.70
23114;DHT22;11726;50.122;8.832;2022-08-19T12:00:49;28.90;80.20
23114;DHT22;11726;50.122;8.832;2022-08-19T12:03:18;28.70;80.30
23114;DHT22;11726;50.122;8.832;2022-08-19T12:05:46;28.70;78.90
23114;DHT22;11726;50.122;8.832;2022-08-19T12:08:13;28.80;80.40
23114;DHT22;11726;50.122;8.832;2022-08-19T12:10:40;29.00;81.90
23114;DHT22;11726;50.122;8.832;2022-08-19T12:13:09;29.00;81.00
23114;DHT22;11726;50.122;8.832;2022-08-19T12:15:37;29.20;80.50
23114;DHT22;11726;50.122;8.832;2022-08-19T12:18:04;28.90;81.60
23114;DHT22;11726;50.122;8.832;2022-08-19T12:20:35;28.80;81.70
23114;DHT22;11726;50.122;8.832;2022-08-19T12:23:03;28.60;81.60
23114;DHT22;11726;50.122;8.832;2022-08-19T12:25:30;28.80;81.20
23114;DHT22;11726;50.122;8.832;2022-08-19T12:27:57;28.90;80.00
23114;DHT22;11726;50.122;8.832;2022-08-19T12:30:27;28.70;80.30
23114;DHT22;11726;50.122;8.832;2022-08-19T12:32:54;28.60;79.80
23114;DHT22;11726;50.122;8.832;2022-08-19T12:35:23;28.40;80.60
23114;DHT22;11726;50.122;8.832;2022-08-19T12:37:49;29.10;78.50
23114;DHT22;11726;50.122;8.832;2022-08-19T12:40:23;29.10;75.70
23114;DHT22;11726;50.122;8.832;2022-08-19T12:42:53;29.20;75.20
23114;DHT22;11726;50.122;8.832;2022-08-19T12:45:19;29.60;74.40
23114;DHT22;11726;50.122;8.832;2022-08-19T12:47:46;30.00;74.60
23114;DHT22;11726;50.122;8.832;2022-08-19T12:50:18;30.40;72.30
23114;DHT22;11726;50.122;8.832;2022-08-19T12:52:45;30.20;72.20
23114;DHT22;11726;50.122;8.832;2022-08-19T12:55:12;30.40;71.30
23114;DHT22;11726;50.122;8.832;2022-08-19T12:57:39;30.80;70.70
23114;DHT22;11726;50.122;8.832;2022-08-19T13:00:09;31.30;69.60
23114;DHT22;11726;50.122;8.832;2022-08-19T13:02:45;31.60;66.80
23114;DHT22;11726;50.122;8.832;2022-08-19T13:05:15;31.30;65.10
23114;DHT22;11726;50.122;8.832;2022-08-19T13:07:42;31.30;64.80
23114;DHT22;11726;50.122;8.832;2022-08-19T13:10:14;31.10;64.50
23114;DHT22;11726;50.122;8.832;2022-08-19T13:12:42;30.50;65.30
23114;DHT22;11726;50.122;8.832;2022-08-19T13:15:14;30.40;68.20
23114;DHT22;11726;50.122;8.832;2022-08-19T13:17:43;30.80;69.50
23114;DHT22;11726;50.122;8.832;2022-08-19T13:20:10;30.70;68.40
23114;DHT22;11726;50.122;8.832;2022-08-19T13:22:38;30.40;67.40
23114;DHT22;11726;50.122;8.832;2022-08-19T13:25:06;29.90;67.20
23114;DHT22;11726;50.122;8.832;2022-08-19T13:27:33;29.90;67.20
23114;DHT22;11726;50.122;8.832;2022-08-19T13:30:00;29.80;67.70
23114;DHT22;11726;50.122;8.832;2022-08-19T13:32:46;29.80;68.00
23114;DHT22;11726;50.122;8.832;2022-08-19T13:35:32;29.80;66.30
23114;DHT22;11726;50.122;8.832;2022-08-19T13:37:59;30.20;63.20
23114;DHT22;11726;50.122;8.832;2022-08-19T13:40:27;30.80;62.50
23114;DHT22;11726;50.122;8.832;2022-08-19T13:42:57;30.80;61.80
23114;DHT22;11726;50.122;8.832;2022-08-19T13:45:26;30.50;62.30
23114;DHT22;11726;50.122;8.832;2022-08-19T13:47:55;30.70;63.90
23114;DHT22;11726;50.122;8.832;2022-08-19T13:50:28;30.70;62.80
23114;DHT22;11726;50.122;8.832;2022-08-19T13:52:55;30.20;63.50
23114;DHT22;11726;50.122;8.832;2022-08-19T13:55:23;30.00;65.60
23114;DHT22;11726;50.122;8.832;2022-08-19T13:57:56;29.80;62.10
23114;DHT22;11726;50.122;8.832;2022-08-19T14:00:24;29.70;60.90
23114;DHT22;11726;50.122;8.832;2022-08-19T14:02:54;29.60;62.00
23114;DHT22;11726;50.122;8.832;2022-08-19T14:05:22;29.70;63.20
23114;DHT22;11726;50.122;8.832;2022-08-19T14:07:49;30.00;64.00
23114;DHT22;11726;50.122;8.832;2022-08-19T14:10:17;30.70;63.20
23114;DHT22;11726;50.122;8.832;2022-08-19T14:12:44;30.60;63.30
23114;DHT22;11726;50.122;8.832;2022-08-19T14:15:12;30.00;64.00
23114;DHT22;11726;50.122;8.832;2022-08-19T14:17:41;30.10;64.80
23114;DHT22;11726;50.122;8.832;2022-08-19T14:20:10;30.30;64.20
23114;DHT22;11726;50.122;8.832;2022-08-19T14:22:44;30.90;64.50
23114;DHT22;11726;50.122;8.832;2022-08-19T14:25:14;30.90;61.90
23114;DHT22;11726;50.122;8.832;2022-08-19T14:27:44;30.90;61.50
23114;DHT22;11726;50.122;8.832;2022-08-19T14:30:15;31.10;61.90
23114;DHT22;11726;50.122;8.832;2022-08-19T14:32:42;31.30;61.10
23114;DHT22;11726;50.122;8.832;2022-08-19T14:35:12;31.50;59.40
23114;DHT22;11726;50.122;8.832;2022-08-19T14:37:39;31.70;59.10
23114;DHT22;11726;50.122;8.832;2022-08-19T14:40:14;31.70;58.30
23114;DHT22;11726;50.122;8.832;2022-08-19T14:42:41;31.20;59.40
23114;DHT22;11726;50.122;8.832;2022-08-19T14:45:10;31.50;59.20
23114;DHT22;11726;50.122;8.832;2022-08-19T14:47:37;31.30;59.10
23114;DHT22;11726;50.122;8.832;2022-08-19T14:50:07;31.60;58.60
23114;DHT22;11726;50.122;8.832;2022-08-19T14:52:43;31.50;57.80
23114;DHT22;11726;50.122;8.832;2022-08-19T14:55:10;31.70;58.20
23114;DHT22;11726;50.122;8.832;2022-08-19T14:57:37;32.00;56.90
23114;DHT22;11726;50.122;8.832;2022-08-19T15:00:04;32.10;56.70
23114;DHT22;11726;50.122;8.832;2022-08-19T15:02:31;31.90;56.60
23114;DHT22;11726;50.122;8.832;2022-08-19T15:05:01;31.70;56.50
23114;DHT22;11726;50.122;8.832;2022-08-19T15:07:28;31.70;57.30
23114;DHT22;11726;50.122;8.832;2022-08-19T15:09:56;31.60;58.20
23114;DHT22;11726;50.122;8.832;2022-08-19T15:12:23;31.50;58.40
23114;DHT22;11726;50.122;8.832;2022-08-19T15:14:51;31.50;58.10
23114;DHT22;11726;50.122;8.832;2022-08-19T15:17:21;31.40;58.60
23114;DHT22;11726;50.122;8.832;2022-08-19T15:19:59;31.90;58.00
23114;DHT22;11726;50.122;8.832;2022-08-19T15:22:27;32.30;56.10
23114;DHT22;11726;50.122;8.832;2022-08-19T15:24:54;32.20;55.60
23114;DHT22;11726;50.122;8.832;2022-08-19T15:27:22;32.40;54.80
23114;DHT22;11726;50.122;8.832;2022-08-19T15:29:48;32.20;54.80
23114;DHT22;11726;50.122;8.832;2022-08-19T15:32:22;32.40;55.60
23114;DHT22;11726;50.122;8.832;2022-08-19T15:34:49;32.40;56.10
23114;DHT22;11726;50.122;8.832;2022-08-19T15:37:16;32.20;56.00
23114;DHT22;11726;50.122;8.832;2022-08-19T15:39:43;31.90;57.20
23114;DHT22;11726;50.122;8.832;2022-08-19T15:42:10;31.90;56.90
23114;DHT22;11726;50.122;8.832;2022-08-19T15:44:40;31.70;56.50
23114;DHT22;11726;50.122;8.832;2022-08-19T15:47:06;31.30;56.10
23114;DHT22;11726;50.122;8.832;2022-08-19T15:49:33;31.10;55.80
23114;DHT22;11726;50.122;8.832;2022-08-19T15:52:00;30.90;56.40
23114;DHT22;11726;50.122;8.832;2022-08-19T15:54:27;31.20;56.40
23114;DHT22;11726;50.122;8.832;2022-08-19T15:56:53;31.50;56.00
23114;DHT22;11726;50.122;8.832;2022-08-19T15:59:55;31.50;55.30
23114;DHT22;11726;50.122;8.832;2022-08-19T16:02:42;31.60;55.50
23114;DHT22;11726;50.122;8.832;2022-08-19T16:05:28;31.40;55.40
23114;DHT22;11726;50.122;8.832;2022-08-19T16:08:44;31.30;55.70
23114;DHT22;11726;50.122;8.832;2022-08-19T16:11:18;31.10;56.00
23114;DHT22;11726;50.122;8.832;2022-08-19T16:13:49;31.10;56.20